sensor_id;sensor_type;location;lat;lon;timestamp;P1;durP1;ratioP1;P2;durP2;ratioP2
1507;SDS011;745;48.586;10.032;2023-10-31T00:01:52;1.77;;;1.30;;
1507;SDS011;745;48.586;10.032;2023-10-31T00:03:54;1.50;;;1.30;;
1507;SDS011;745;48.586;10.032;2023-10-31T00:05:54;1.30;;;1.20;;
1507;SDS011;745;48.586;10.032;2023-10-31T00:07:54;1.33;;;1.23;;
1507;SDS011;745;48.586;10.032;2023-10-31T00:09:55;1.33;;;1.23;;
1507;SDS011;745;48.586;10.032;2023-10-31T00:11:55;1.80;;;1.10;;
1507;SDS011;745;48.586;10.032;2023-10-31T00:13:55;1.33;;;1.23;;
1507;SDS011;745;48.586;10.032;2023-10-31T00:15:56;1.40;;;1.30;;
1507;SDS011;745;48.586;10.032;2023-10-31T00:17:56;1.30;;;1.20;;
1507;SDS011;745;48.586;10.032;2023-10-31T00:19:56;1.40;;;1.30;;
1507;SDS011;745;48.586;10.032;2023-10-31T00:21:57;1.20;;;1.10;;
1507;SDS011;745;48.586;10.032;2023-10-31T00:23:57;1.40;;;1.30;;
1507;SDS011;745;48.586;10.032;2023-10-31T00:25:57;1.20;;;1.10;;
1507;SDS011;745;48.586;10.032;2023-10-31T00:27:58;1.30;;;1.10;;
1507;SDS011;745;48.586;10.032;2023-10-31T00:29:58;1.57;;;1.40;;
1507;SDS011;745;48.586;10.032;2023-10-31T00:31:58;1.20;;;1.10;;
1507;SDS011;745;48.586;10.032;2023-10-31T00:33:58;1.47;;;1.10;;
1507;SDS011;745;48.586;10.032;2023-10-31T00:35:59;1.73;;;1.27;;
1507;SDS011;745;48.586;10.032;2023-10-31T00:37:59;1.20;;;1.10;;
1507;SDS011;745;48.586;10.032;2023-10-31T00:39:59;1.50;;;1.40;;
1507;SDS011;745;48.586;10.032;2023-10-31T00:42:00;0.93;;;0.93;;
1507;SDS011;745;48.586;10.032;2023-10-31T00:44:00;1.43;;;1.33;;
1507;SDS011;745;48.586;10.032;2023-10-31T00:46:02;1.83;;;1.73;;
1507;SDS011;745;48.586;10.032;2023-10-31T00:48:03;1.40;;;1.30;;
1507;SDS011;745;48.586;10.032;2023-10-31T00:50:03;1.50;;;1.40;;
1507;SDS011;745;48.586;10.032;2023-10-31T00:52:04;2.40;;;1.40;;
1507;SDS011;745;48.586;10.032;2023-10-31T00:54:04;1.43;;;1.33;;
1507;SDS011;745;48.586;10.032;2023-10-31T00:56:05;2.40;;;1.53;;
1507;SDS011;745;48.586;10.032;2023-10-31T00:58:06;1.50;;;1.40;;
1507;SDS011;745;48.586;10.032;2023-10-31T01:00:06;1.30;;;1.20;;
1507;SDS011;745;48.586;10.032;2023-10-31T01:02:08;1.40;;;1.30;;
1507;SDS011;745;48.586;10.032;2023-10-31T01:04:09;1.63;;;1.53;;
1507;SDS011;745;48.586;10.032;2023-10-31T01:06:10;1.70;;;1.60;;
1507;SDS011;745;48.586;10.032;2023-10-31T01:08:11;1.50;;;1.40;;
1507;SDS011;745;48.586;10.032;2023-10-31T01:10:11;2.20;;;1.30;;
1507;SDS011;745;48.586;10.032;2023-10-31T01:12:12;2.00;;;1.87;;
1507;SDS011;745;48.586;10.032;2023-10-31T01:14:12;1.70;;;1.60;;
1507;SDS011;745;48.586;10.032;2023-10-31T01:16:12;1.90;;;1.70;;
1507;SDS011;745;48.586;10.032;2023-10-31T01:18:13;2.07;;;1.73;;
1507;SDS011;745;48.586;10.032;2023-10-31T01:20:13;1.90;;;1.80;;
1507;SDS011;745;48.586;10.032;2023-10-31T01:22:14;1.87;;;1.77;;
1507;SDS011;745;48.586;10.032;2023-10-31T01:24:14;1.73;;;1.63;;
1507;SDS011;745;48.586;10.032;2023-10-31T01:26:15;2.30;;;1.63;;
1507;SDS011;745;48.586;10.032;2023-10-31T01:28:16;2.00;;;1.67;;
1507;SDS011;745;48.586;10.032;2023-10-31T01:30:16;1.57;;;1.47;;
1507;SDS011;745;48.586;10.032;2023-10-31T01:32:16;1.60;;;1.50;;
1507;SDS011;745;48.586;10.032;2023-10-31T01:34:18;1.50;;;1.40;;
1507;SDS011;745;48.586;10.032;2023-10-31T01:36:18;1.50;;;1.40;;
1507;SDS011;745;48.586;10.032;2023-10-31T01:38:19;1.47;;;1.37;;
1507;SDS011;745;48.586;10.032;2023-10-31T01:40:19;1.63;;;1.53;;
1507;SDS011;745;48.586;10.032;2023-10-31T01:42:20;1.50;;;1.40;;
1507;SDS011;745;48.586;10.032;2023-10-31T01:44:20;1.57;;;1.40;;
1507;SDS011;745;48.586;10.032;2023-10-31T01:46:21;1.50;;;1.40;;
1507;SDS011;745;48.586;10.032;2023-10-31T01:48:21;2.30;;;1.30;;
1507;SDS011;745;48.586;10.032;2023-10-31T01:50:24;0.93;;;0.93;;
1507;SDS011;745;48.586;10.032;2023-10-31T01:52:24;1.23;;;1.13;;
1507;SDS011;745;48.586;10.032;2023-10-31T01:54:26;1.10;;;1.00;;
1507;SDS011;745;48.586;10.032;2023-10-31T01:56:26;1.37;;;1.07;;
1507;SDS011;745;48.586;10.032;2023-10-31T01:58:34;1.20;;;1.10;;
1507;SDS011;745;48.586;10.032;2023-10-31T02:00:35;1.17;;;1.08;;
1507;SDS011;745;48.586;10.032;2023-10-31T02:02:35;1.30;;;1.10;;
1507;SDS011;745;48.586;10.032;2023-10-31T02:04:36;1.93;;;1.13;;
1507;SDS011;745;48.586;10.032;2023-10-31T02:06:36;1.10;;;1.00;;
1507;SDS011;745;48.586;10.032;2023-10-31T02:08:37;1.47;;;0.90;;
1507;SDS011;745;48.586;10.032;2023-10-31T02:10:37;1.20;;;1.10;;
1507;SDS011;745;48.586;10.032;2023-10-31T02:12:37;1.30;;;1.20;;
1507;SDS011;745;48.586;10.032;2023-10-31T02:14:38;1.20;;;1.10;;
1507;SDS011;745;48.586;10.032;2023-10-31T02:16:38;1.20;;;1.10;;
1507;SDS011;745;48.586;10.032;2023-10-31T02:18:39;2.30;;;1.17;;
1507;SDS011;745;48.586;10.032;2023-10-31T02:20:39;1.27;;;1.17;;
1507;SDS011;745;48.586;10.032;2023-10-31T02:22:40;1.43;;;1.30;;
1507;SDS011;745;48.586;10.032;2023-10-31T02:24:40;1.30;;;1.20;;
1507;SDS011;745;48.586;10.032;2023-10-31T02:26:40;1.43;;;1.20;;
1507;SDS011;745;48.586;10.032;2023-10-31T02:28:41;1.43;;;1.33;;
1507;SDS011;745;48.586;10.032;2023-10-31T02:30:41;1.50;;;1.40;;
1507;SDS011;745;48.586;10.032;2023-10-31T02:32:42;1.40;;;1.30;;
1507;SDS011;745;48.586;10.032;2023-10-31T02:34:44;1.30;;;1.20;;
1507;SDS011;745;48.586;10.032;2023-10-31T02:36:44;1.50;;;1.40;;
1507;SDS011;745;48.586;10.032;2023-10-31T02:38:45;1.20;;;1.10;;
1507;SDS011;745;48.586;10.032;2023-10-31T02:40:45;1.30;;;1.20;;
1507;SDS011;745;48.586;10.032;2023-10-31T02:42:46;1.30;;;1.20;;
1507;SDS011;745;48.586;10.032;2023-10-31T02:44:46;1.40;;;1.30;;
1507;SDS011;745;48.586;10.032;2023-10-31T02:46:47;2.07;;;1.40;;
1507;SDS011;745;48.586;10.032;2023-10-31T02:48:47;3.23;;;1.40;;
1507;SDS011;745;48.586;10.032;2023-10-31T02:50:47;1.73;;;1.30;;
1507;SDS011;745;48.586;10.032;2023-10-31T02:52:47;1.40;;;1.30;;
1507;SDS011;745;48.586;10.032;2023-10-31T02:54:48;1.60;;;1.30;;
1507;SDS011;745;48.586;10.032;2023-10-31T02:56:48;1.20;;;1.10;;
1507;SDS011;745;48.586;10.032;2023-10-31T02:58:48;1.30;;;1.20;;
1507;SDS011;745;48.586;10.032;2023-10-31T03:00:49;1.97;;;1.20;;
1507;SDS011;745;48.586;10.032;2023-10-31T03:02:50;1.33;;;1.23;;
1507;SDS011;745;48.586;10.032;2023-10-31T03:04:50;1.93;;;1.23;;
1507;SDS011;745;48.586;10.032;2023-10-31T03:06:50;1.57;;;1.47;;
1507;SDS011;745;48.586;10.032;2023-10-31T03:08:51;1.43;;;1.10;;
1507;SDS011;745;48.586;10.032;2023-10-31T03:10:51;1.30;;;1.20;;
1507;SDS011;745;48.586;10.032;2023-10-31T03:12:52;1.50;;;1.40;;
1507;SDS011;745;48.586;10.032;2023-10-31T03:14:52;1.50;;;1.40;;
1507;SDS011;745;48.586;10.032;2023-10-31T03:16:52;1.47;;;1.37;;
1507;SDS011;745;48.586;10.032;2023-10-31T03:18:53;1.37;;;1.20;;
1507;SDS011;745;48.586;10.032;2023-10-31T03:20:53;1.70;;;1.40;;
1507;SDS011;745;48.586;10.032;2023-10-31T03:22:53;2.20;;;1.30;;
1507;SDS011;745;48.586;10.032;2023-10-31T03:24:54;1.87;;;1.17;;
1507;SDS011;745;48.586;10.032;2023-10-31T03:26:54;1.90;;;1.20;;
1507;SDS011;745;48.586;10.032;2023-10-31T03:28:55;1.30;;;1.20;;
1507;SDS011;745;48.586;10.032;2023-10-31T03:30:57;1.23;;;1.13;;
1507;SDS011;745;48.586;10.032;2023-10-31T03:32:57;1.40;;;1.30;;
1507;SDS011;745;48.586;10.032;2023-10-31T03:34:58;1.30;;;1.20;;
1507;SDS011;745;48.586;10.032;2023-10-31T03:36:58;2.53;;;1.40;;
1507;SDS011;745;48.586;10.032;2023-10-31T03:38:58;1.47;;;1.37;;
1507;SDS011;745;48.586;10.032;2023-10-31T03:40:58;1.20;;;1.10;;
1507;SDS011;745;48.586;10.032;2023-10-31T03:42:59;2.33;;;1.40;;
1507;SDS011;745;48.586;10.032;2023-10-31T03:44:59;3.53;;;1.30;;
1507;SDS011;745;48.586;10.032;2023-10-31T03:46:59;1.43;;;1.33;;
1507;SDS011;745;48.586;10.032;2023-10-31T03:49:00;3.27;;;1.40;;
1507;SDS011;745;48.586;10.032;2023-10-31T03:51:00;1.47;;;1.23;;
1507;SDS011;745;48.586;10.032;2023-10-31T03:53:00;2.07;;;1.30;;
1507;SDS011;745;48.586;10.032;2023-10-31T03:55:01;1.33;;;1.23;;
1507;SDS011;745;48.586;10.032;2023-10-31T03:57:01;1.40;;;1.30;;
1507;SDS011;745;48.586;10.032;2023-10-31T03:59:01;2.50;;;1.30;;
1507;SDS011;745;48.586;10.032;2023-10-31T04:01:02;1.30;;;1.20;;
1507;SDS011;745;48.586;10.032;2023-10-31T04:03:02;1.37;;;1.27;;
1507;SDS011;745;48.586;10.032;2023-10-31T04:05:03;2.03;;;1.33;;
1507;SDS011;745;48.586;10.032;2023-10-31T04:07:03;1.40;;;1.30;;
1507;SDS011;745;48.586;10.032;2023-10-31T04:09:03;1.40;;;1.30;;
1507;SDS011;745;48.586;10.032;2023-10-31T04:11:04;1.40;;;1.30;;
1507;SDS011;745;48.586;10.032;2023-10-31T04:13:04;3.83;;;1.20;;
1507;SDS011;745;48.586;10.032;2023-10-31T04:15:05;1.27;;;1.17;;
1507;SDS011;745;48.586;10.032;2023-10-31T04:17:05;1.70;;;1.30;;
1507;SDS011;745;48.586;10.032;2023-10-31T04:19:06;1.30;;;1.20;;
1507;SDS011;745;48.586;10.032;2023-10-31T04:21:06;1.23;;;1.13;;
1507;SDS011;745;48.586;10.032;2023-10-31T04:23:06;1.10;;;1.00;;
1507;SDS011;745;48.586;10.032;2023-10-31T04:25:07;1.20;;;1.10;;
1507;SDS011;745;48.586;10.032;2023-10-31T04:27:07;1.20;;;1.10;;
1507;SDS011;745;48.586;10.032;2023-10-31T04:29:08;1.20;;;1.10;;
1507;SDS011;745;48.586;10.032;2023-10-31T04:31:08;1.47;;;1.10;;
1507;SDS011;745;48.586;10.032;2023-10-31T04:33:08;1.30;;;1.20;;
1507;SDS011;745;48.586;10.032;2023-10-31T04:35:09;1.10;;;1.00;;
1507;SDS011;745;48.586;10.032;2023-10-31T04:37:09;1.20;;;1.10;;
1507;SDS011;745;48.586;10.032;2023-10-31T04:39:09;1.20;;;1.10;;
1507;SDS011;745;48.586;10.032;2023-10-31T04:41:10;1.20;;;1.10;;
1507;SDS011;745;48.586;10.032;2023-10-31T04:43:10;1.87;;;1.10;;
1507;SDS011;745;48.586;10.032;2023-10-31T04:45:11;1.20;;;1.10;;
1507;SDS011;745;48.586;10.032;2023-10-31T04:47:11;1.27;;;1.10;;
1507;SDS011;745;48.586;10.032;2023-10-31T04:49:11;1.10;;;1.00;;
1507;SDS011;745;48.586;10.032;2023-10-31T04:51:12;1.13;;;0.90;;
1507;SDS011;745;48.586;10.032;2023-10-31T04:53:12;0.97;;;0.97;;
1507;SDS011;745;48.586;10.032;2023-10-31T04:55:12;1.40;;;0.97;;
1507;SDS011;745;48.586;10.032;2023-10-31T04:57:13;1.10;;;1.00;;
1507;SDS011;745;48.586;10.032;2023-10-31T04:59:13;1.03;;;0.93;;
1507;SDS011;745;48.586;10.032;2023-10-31T05:01:14;1.53;;;0.87;;
1507;SDS011;745;48.586;10.032;2023-10-31T05:03:14;1.10;;;1.00;;
1507;SDS011;745;48.586;10.032;2023-10-31T05:05:14;1.10;;;1.00;;
1507;SDS011;745;48.586;10.032;2023-10-31T05:07:15;1.33;;;0.93;;
1507;SDS011;745;48.586;10.032;2023-10-31T05:09:15;1.20;;;1.10;;
1507;SDS011;745;48.586;10.032;2023-10-31T05:11:19;1.33;;;1.00;;
1507;SDS011;745;48.586;10.032;2023-10-31T05:13:19;2.75;;;1.05;;
1507;SDS011;745;48.586;10.032;2023-10-31T05:15:19;0.90;;;0.90;;
1507;SDS011;745;48.586;10.032;2023-10-31T05:17:20;2.20;;;1.30;;
1507;SDS011;745;48.586;10.032;2023-10-31T05:19:20;0.90;;;0.90;;
1507;SDS011;745;48.586;10.032;2023-10-31T05:21:20;3.03;;;1.27;;
1507;SDS011;745;48.586;10.032;2023-10-31T05:23:21;1.60;;;1.50;;
1507;SDS011;745;48.586;10.032;2023-10-31T05:25:21;1.83;;;1.73;;
1507;SDS011;745;48.586;10.032;2023-10-31T05:27:21;1.60;;;1.50;;
1507;SDS011;745;48.586;10.032;2023-10-31T05:29:22;3.07;;;2.57;;
1507;SDS011;745;48.586;10.032;2023-10-31T05:31:22;2.03;;;1.80;;
1507;SDS011;745;48.586;10.032;2023-10-31T05:33:23;1.52;;;1.42;;
1507;SDS011;745;48.586;10.032;2023-10-31T05:35:23;2.30;;;1.83;;
1507;SDS011;745;48.586;10.032;2023-10-31T05:37:25;1.50;;;1.40;;
1507;SDS011;745;48.586;10.032;2023-10-31T05:39:25;2.10;;;2.00;;
1507;SDS011;745;48.586;10.032;2023-10-31T05:41:26;1.27;;;1.17;;
1507;SDS011;745;48.586;10.032;2023-10-31T05:43:26;1.20;;;1.10;;
1507;SDS011;745;48.586;10.032;2023-10-31T05:45:28;1.40;;;1.30;;
1507;SDS011;745;48.586;10.032;2023-10-31T05:47:28;1.70;;;1.60;;
1507;SDS011;745;48.586;10.032;2023-10-31T05:49:29;1.33;;;1.23;;
1507;SDS011;745;48.586;10.032;2023-10-31T05:51:30;1.80;;;1.70;;
1507;SDS011;745;48.586;10.032;2023-10-31T05:53:30;2.53;;;1.70;;
1507;SDS011;745;48.586;10.032;2023-10-31T05:55:33;2.75;;;2.10;;
1507;SDS011;745;48.586;10.032;2023-10-31T05:57:35;2.58;;;2.38;;
1507;SDS011;745;48.586;10.032;2023-10-31T05:59:35;1.67;;;1.53;;
1507;SDS011;745;48.586;10.032;2023-10-31T06:01:36;2.80;;;2.30;;
1507;SDS011;745;48.586;10.032;2023-10-31T06:03:36;3.63;;;3.23;;
1507;SDS011;745;48.586;10.032;2023-10-31T06:05:37;10.07;;;7.80;;
1507;SDS011;745;48.586;10.032;2023-10-31T06:07:37;12.93;;;10.10;;
1507;SDS011;745;48.586;10.032;2023-10-31T06:09:37;12.50;;;9.10;;
1507;SDS011;745;48.586;10.032;2023-10-31T06:11:40;16.47;;;11.77;;
1507;SDS011;745;48.586;10.032;2023-10-31T06:13:41;6.80;;;4.30;;
1507;SDS011;745;48.586;10.032;2023-10-31T06:15:41;11.70;;;8.33;;
1507;SDS011;745;48.586;10.032;2023-10-31T06:17:42;9.97;;;7.37;;
1507;SDS011;745;48.586;10.032;2023-10-31T06:19:42;7.97;;;6.10;;
1507;SDS011;745;48.586;10.032;2023-10-31T06:21:45;11.88;;;8.77;;
1507;SDS011;745;48.586;10.032;2023-10-31T06:23:45;9.57;;;6.50;;
1507;SDS011;745;48.586;10.032;2023-10-31T06:25:46;10.63;;;6.67;;
1507;SDS011;745;48.586;10.032;2023-10-31T06:27:46;9.63;;;7.13;;
1507;SDS011;745;48.586;10.032;2023-10-31T06:29:46;8.33;;;5.40;;
1507;SDS011;745;48.586;10.032;2023-10-31T06:31:47;6.93;;;4.30;;
1507;SDS011;745;48.586;10.032;2023-10-31T06:33:47;5.97;;;4.57;;
1507;SDS011;745;48.586;10.032;2023-10-31T06:35:48;7.13;;;4.47;;
1507;SDS011;745;48.586;10.032;2023-10-31T06:37:48;5.23;;;3.13;;
1507;SDS011;745;48.586;10.032;2023-10-31T06:39:48;3.70;;;3.33;;
1507;SDS011;745;48.586;10.032;2023-10-31T06:41:49;2.93;;;2.63;;
1507;SDS011;745;48.586;10.032;2023-10-31T06:43:49;3.67;;;2.97;;
1507;SDS011;745;48.586;10.032;2023-10-31T06:45:49;4.13;;;2.60;;
1507;SDS011;745;48.586;10.032;2023-10-31T06:47:50;3.87;;;2.50;;
1507;SDS011;745;48.586;10.032;2023-10-31T06:49:50;1.70;;;1.60;;
1507;SDS011;745;48.586;10.032;2023-10-31T06:51:50;12.90;;;10.70;;
1507;SDS011;745;48.586;10.032;2023-10-31T06:53:51;8.40;;;5.83;;
1507;SDS011;745;48.586;10.032;2023-10-31T06:55:51;1.70;;;1.60;;
1507;SDS011;745;48.586;10.032;2023-10-31T06:57:51;1.73;;;1.63;;
1507;SDS011;745;48.586;10.032;2023-10-31T06:59:52;1.63;;;1.27;;
1507;SDS011;745;48.586;10.032;2023-10-31T07:01:53;2.10;;;1.60;;
1507;SDS011;745;48.586;10.032;2023-10-31T07:03:53;1.67;;;1.57;;
1507;SDS011;745;48.586;10.032;2023-10-31T07:05:53;4.23;;;2.37;;
1507;SDS011;745;48.586;10.032;2023-10-31T07:07:56;5.13;;;4.28;;
1507;SDS011;745;48.586;10.032;2023-10-31T07:09:56;5.70;;;3.50;;
1507;SDS011;745;48.586;10.032;2023-10-31T07:11:57;5.67;;;4.40;;
1507;SDS011;745;48.586;10.032;2023-10-31T07:13:57;5.60;;;4.63;;
1507;SDS011;745;48.586;10.032;2023-10-31T07:15:57;8.53;;;5.10;;
1507;SDS011;745;48.586;10.032;2023-10-31T07:17:58;6.13;;;4.87;;
1507;SDS011;745;48.586;10.032;2023-10-31T07:19:58;4.00;;;2.50;;
1507;SDS011;745;48.586;10.032;2023-10-31T07:21:59;3.03;;;2.57;;
1507;SDS011;745;48.586;10.032;2023-10-31T07:23:59;6.33;;;4.03;;
1507;SDS011;745;48.586;10.032;2023-10-31T07:25:59;4.90;;;4.20;;
1507;SDS011;745;48.586;10.032;2023-10-31T07:28:00;4.10;;;3.07;;
1507;SDS011;745;48.586;10.032;2023-10-31T07:30:00;5.20;;;3.30;;
1507;SDS011;745;48.586;10.032;2023-10-31T07:32:02;2.42;;;1.90;;
1507;SDS011;745;48.586;10.032;2023-10-31T07:34:02;5.97;;;4.53;;
1507;SDS011;745;48.586;10.032;2023-10-31T07:36:03;5.47;;;3.83;;
1507;SDS011;745;48.586;10.032;2023-10-31T07:38:04;3.10;;;2.80;;
1507;SDS011;745;48.586;10.032;2023-10-31T07:40:04;2.83;;;2.50;;
1507;SDS011;745;48.586;10.032;2023-10-31T07:42:05;2.55;;;2.20;;
1507;SDS011;745;48.586;10.032;2023-10-31T07:44:06;3.30;;;2.83;;
1507;SDS011;745;48.586;10.032;2023-10-31T07:46:06;3.23;;;2.93;;
1507;SDS011;745;48.586;10.032;2023-10-31T07:48:07;2.67;;;1.87;;
1507;SDS011;745;48.586;10.032;2023-10-31T07:50:08;2.63;;;2.43;;
1507;SDS011;745;48.586;10.032;2023-10-31T07:52:08;2.00;;;1.90;;
1507;SDS011;745;48.586;10.032;2023-10-31T07:54:09;3.57;;;1.63;;
1507;SDS011;745;48.586;10.032;2023-10-31T07:56:16;1.70;;;1.60;;
1507;SDS011;745;48.586;10.032;2023-10-31T07:58:17;1.83;;;1.67;;
1507;SDS011;745;48.586;10.032;2023-10-31T08:00:17;1.60;;;1.50;;
1507;SDS011;745;48.586;10.032;2023-10-31T08:02:17;1.73;;;1.57;;
1507;SDS011;745;48.586;10.032;2023-10-31T08:04:18;1.80;;;1.70;;
1507;SDS011;745;48.586;10.032;2023-10-31T08:06:19;1.80;;;1.70;;
1507;SDS011;745;48.586;10.032;2023-10-31T08:08:19;5.80;;;1.65;;
1507;SDS011;745;48.586;10.032;2023-10-31T08:10:19;2.70;;;2.10;;
1507;SDS011;745;48.586;10.032;2023-10-31T08:12:20;2.43;;;2.23;;
1507;SDS011;745;48.586;10.032;2023-10-31T08:14:20;3.43;;;2.60;;
1507;SDS011;745;48.586;10.032;2023-10-31T08:16:22;2.80;;;2.60;;
1507;SDS011;745;48.586;10.032;2023-10-31T08:18:23;6.77;;;4.70;;
1507;SDS011;745;48.586;10.032;2023-10-31T08:20:24;6.65;;;4.80;;
1507;SDS011;745;48.586;10.032;2023-10-31T08:22:24;5.40;;;4.10;;
1507;SDS011;745;48.586;10.032;2023-10-31T08:24:25;7.60;;;4.63;;
1507;SDS011;745;48.586;10.032;2023-10-31T08:26:25;16.03;;;8.83;;
1507;SDS011;745;48.586;10.032;2023-10-31T08:28:25;8.60;;;6.10;;
1507;SDS011;745;48.586;10.032;2023-10-31T08:30:26;4.40;;;2.60;;
1507;SDS011;745;48.586;10.032;2023-10-31T08:32:26;4.83;;;3.47;;
1507;SDS011;745;48.586;10.032;2023-10-31T08:34:26;4.50;;;3.10;;
1507;SDS011;745;48.586;10.032;2023-10-31T08:36:26;5.13;;;3.40;;
1507;SDS011;745;48.586;10.032;2023-10-31T08:38:27;6.83;;;4.30;;
1507;SDS011;745;48.586;10.032;2023-10-31T08:40:28;2.75;;;2.10;;
1507;SDS011;745;48.586;10.032;2023-10-31T08:42:28;1.67;;;1.40;;
1507;SDS011;745;48.586;10.032;2023-10-31T08:44:29;2.30;;;1.97;;
1507;SDS011;745;48.586;10.032;2023-10-31T08:46:29;2.60;;;2.30;;
1507;SDS011;745;48.586;10.032;2023-10-31T08:48:29;2.03;;;1.83;;
1507;SDS011;745;48.586;10.032;2023-10-31T08:50:29;3.30;;;1.50;;
1507;SDS011;745;48.586;10.032;2023-10-31T08:52:30;2.63;;;1.97;;
1507;SDS011;745;48.586;10.032;2023-10-31T08:54:30;7.23;;;4.77;;
1507;SDS011;745;48.586;10.032;2023-10-31T08:56:30;5.27;;;4.10;;
1507;SDS011;745;48.586;10.032;2023-10-31T08:58:31;3.33;;;1.77;;
1507;SDS011;745;48.586;10.032;2023-10-31T09:00:31;3.63;;;2.60;;
1507;SDS011;745;48.586;10.032;2023-10-31T09:02:32;1.80;;;1.70;;
1507;SDS011;745;48.586;10.032;2023-10-31T09:04:33;4.10;;;3.70;;
1507;SDS011;745;48.586;10.032;2023-10-31T09:06:35;1.90;;;1.60;;
1507;SDS011;745;48.586;10.032;2023-10-31T09:08:35;1.97;;;1.40;;
1507;SDS011;745;48.586;10.032;2023-10-31T09:10:36;3.17;;;1.63;;
1507;SDS011;745;48.586;10.032;2023-10-31T09:12:41;2.15;;;1.50;;
1507;SDS011;745;48.586;10.032;2023-10-31T09:14:41;1.60;;;1.50;;
1507;SDS011;745;48.586;10.032;2023-10-31T09:16:42;1.80;;;1.17;;
1507;SDS011;745;48.586;10.032;2023-10-31T09:18:42;3.73;;;1.77;;
1507;SDS011;745;48.586;10.032;2023-10-31T09:20:43;2.33;;;1.40;;
1507;SDS011;745;48.586;10.032;2023-10-31T09:22:43;1.43;;;1.20;;
1507;SDS011;745;48.586;10.032;2023-10-31T09:24:44;1.80;;;1.70;;
1507;SDS011;745;48.586;10.032;2023-10-31T09:26:44;1.50;;;1.40;;
1507;SDS011;745;48.586;10.032;2023-10-31T09:28:44;1.97;;;1.33;;
1507;SDS011;745;48.586;10.032;2023-10-31T09:30:49;2.90;;;1.55;;
1507;SDS011;745;48.586;10.032;2023-10-31T09:32:50;2.60;;;1.97;;
1507;SDS011;745;48.586;10.032;2023-10-31T09:34:51;3.72;;;2.00;;
1507;SDS011;745;48.586;10.032;2023-10-31T09:36:51;2.70;;;1.60;;
1507;SDS011;745;48.586;10.032;2023-10-31T09:38:52;1.60;;;1.50;;
1507;SDS011;745;48.586;10.032;2023-10-31T09:40:52;1.73;;;1.50;;
1507;SDS011;745;48.586;10.032;2023-10-31T09:42:52;1.87;;;1.70;;
1507;SDS011;745;48.586;10.032;2023-10-31T09:44:53;4.57;;;2.00;;
1507;SDS011;745;48.586;10.032;2023-10-31T09:46:53;3.50;;;1.80;;
1507;SDS011;745;48.586;10.032;2023-10-31T09:48:53;2.53;;;1.70;;
1507;SDS011;745;48.586;10.032;2023-10-31T09:50:55;2.05;;;1.50;;
1507;SDS011;745;48.586;10.032;2023-10-31T09:52:56;2.40;;;1.63;;
1507;SDS011;745;48.586;10.032;2023-10-31T09:54:57;3.67;;;1.90;;
1507;SDS011;745;48.586;10.032;2023-10-31T09:56:59;4.10;;;2.40;;
1507;SDS011;745;48.586;10.032;2023-10-31T09:58:59;1.97;;;1.70;;
1507;SDS011;745;48.586;10.032;2023-10-31T10:01:00;2.92;;;2.30;;
1507;SDS011;745;48.586;10.032;2023-10-31T10:03:00;4.07;;;2.83;;
1507;SDS011;745;48.586;10.032;2023-10-31T10:05:01;4.53;;;2.50;;
1507;SDS011;745;48.586;10.032;2023-10-31T10:07:02;2.63;;;1.50;;
1507;SDS011;745;48.586;10.032;2023-10-31T10:09:03;8.53;;;2.70;;
1507;SDS011;745;48.586;10.032;2023-10-31T10:11:06;7.18;;;1.95;;
1507;SDS011;745;48.586;10.032;2023-10-31T10:13:06;1.97;;;1.63;;
1507;SDS011;745;48.586;10.032;2023-10-31T10:15:08;3.63;;;1.40;;
1507;SDS011;745;48.586;10.032;2023-10-31T10:17:17;3.77;;;1.80;;
1507;SDS011;745;48.586;10.032;2023-10-31T10:19:21;2.80;;;2.60;;
1507;SDS011;745;48.586;10.032;2023-10-31T10:21:22;4.80;;;2.85;;
1507;SDS011;745;48.586;10.032;2023-10-31T10:23:23;3.33;;;1.77;;
1507;SDS011;745;48.586;10.032;2023-10-31T10:25:24;2.28;;;1.75;;
1507;SDS011;745;48.586;10.032;2023-10-31T10:27:24;2.87;;;1.93;;
1507;SDS011;745;48.586;10.032;2023-10-31T10:29:25;4.53;;;1.67;;
1507;SDS011;745;48.586;10.032;2023-10-31T10:31:26;2.85;;;1.58;;
1507;SDS011;745;48.586;10.032;2023-10-31T10:33:27;4.03;;;1.73;;
1507;SDS011;745;48.586;10.032;2023-10-31T10:35:27;2.03;;;1.33;;
1507;SDS011;745;48.586;10.032;2023-10-31T10:37:27;3.60;;;1.57;;
1507;SDS011;745;48.586;10.032;2023-10-31T10:39:28;2.30;;;1.33;;
1507;SDS011;745;48.586;10.032;2023-10-31T10:41:29;1.80;;;1.50;;
1507;SDS011;745;48.586;10.032;2023-10-31T10:43:30;3.53;;;1.50;;
1507;SDS011;745;48.586;10.032;2023-10-31T10:45:32;3.83;;;2.03;;
1507;SDS011;745;48.586;10.032;2023-10-31T10:47:32;2.80;;;1.83;;
1507;SDS011;745;48.586;10.032;2023-10-31T10:49:35;4.23;;;1.70;;
1507;SDS011;745;48.586;10.032;2023-10-31T10:53:49;3.00;;;1.70;;
1507;SDS011;745;48.586;10.032;2023-10-31T10:55:53;2.72;;;1.50;;
1507;SDS011;745;48.586;10.032;2023-10-31T11:00:03;2.05;;;1.58;;
1507;SDS011;745;48.586;10.032;2023-10-31T11:02:08;3.38;;;1.38;;
1507;SDS011;745;48.586;10.032;2023-10-31T11:04:11;2.78;;;1.77;;
1507;SDS011;745;48.586;10.032;2023-10-31T11:06:12;2.40;;;1.70;;
1507;SDS011;745;48.586;10.032;2023-10-31T11:08:13;1.88;;;1.48;;
1507;SDS011;745;48.586;10.032;2023-10-31T11:10:14;1.60;;;1.50;;
1507;SDS011;745;48.586;10.032;2023-10-31T11:12:14;1.70;;;1.30;;
1507;SDS011;745;48.586;10.032;2023-10-31T11:14:19;3.28;;;2.00;;
1507;SDS011;745;48.586;10.032;2023-10-31T11:18:41;2.10;;;1.50;;
1507;SDS011;745;48.586;10.032;2023-10-31T11:20:41;2.17;;;1.50;;
1507;SDS011;745;48.586;10.032;2023-10-31T11:22:46;2.30;;;1.40;;
1507;SDS011;745;48.586;10.032;2023-10-31T11:24:49;2.95;;;1.40;;
1507;SDS011;745;48.586;10.032;2023-10-31T11:26:50;3.55;;;1.60;;
1507;SDS011;745;48.586;10.032;2023-10-31T11:28:52;2.60;;;1.40;;
1507;SDS011;745;48.586;10.032;2023-10-31T11:30:53;3.37;;;1.47;;
1507;SDS011;745;48.586;10.032;2023-10-31T11:32:59;5.78;;;3.25;;
1507;SDS011;745;48.586;10.032;2023-10-31T11:34:59;5.40;;;3.00;;
1507;SDS011;745;48.586;10.032;2023-10-31T11:39:20;20.35;;;10.55;;
1507;SDS011;745;48.586;10.032;2023-10-31T11:41:25;11.75;;;6.65;;
1507;SDS011;745;48.586;10.032;2023-10-31T11:43:26;4.27;;;2.00;;
1507;SDS011;745;48.586;10.032;2023-10-31T11:47:47;4.80;;;3.55;;
1507;SDS011;745;48.586;10.032;2023-10-31T11:49:47;4.85;;;3.00;;
1507;SDS011;745;48.586;10.032;2023-10-31T11:51:48;2.60;;;1.67;;
1507;SDS011;745;48.586;10.032;2023-10-31T11:53:50;4.18;;;2.92;;
1507;SDS011;745;48.586;10.032;2023-10-31T11:55:51;3.53;;;2.43;;
1507;SDS011;745;48.586;10.032;2023-10-31T11:57:56;3.08;;;2.28;;
1507;SDS011;745;48.586;10.032;2023-10-31T11:59:56;4.07;;;1.70;;
1507;SDS011;745;48.586;10.032;2023-10-31T12:01:57;2.60;;;1.67;;
1507;SDS011;745;48.586;10.032;2023-10-31T12:03:57;2.17;;;1.50;;
1507;SDS011;745;48.586;10.032;2023-10-31T12:05:58;1.73;;;1.30;;
1507;SDS011;745;48.586;10.032;2023-10-31T12:08:02;2.13;;;1.27;;
1507;SDS011;745;48.586;10.032;2023-10-31T12:10:02;1.83;;;1.50;;
1507;SDS011;745;48.586;10.032;2023-10-31T12:12:03;2.00;;;1.30;;
1507;SDS011;745;48.586;10.032;2023-10-31T12:14:03;2.17;;;1.47;;
1507;SDS011;745;48.586;10.032;2023-10-31T12:16:06;2.15;;;1.27;;
1507;SDS011;745;48.586;10.032;2023-10-31T12:18:07;3.50;;;1.30;;
1507;SDS011;745;48.586;10.032;2023-10-31T12:20:08;2.22;;;1.55;;
1507;SDS011;745;48.586;10.032;2023-10-31T12:22:12;1.67;;;1.57;;
1507;SDS011;745;48.586;10.032;2023-10-31T12:24:15;2.38;;;1.70;;
1507;SDS011;745;48.586;10.032;2023-10-31T12:26:20;1.75;;;1.60;;
1507;SDS011;745;48.586;10.032;2023-10-31T12:28:22;2.85;;;1.25;;
1507;SDS011;745;48.586;10.032;2023-10-31T12:30:23;5.57;;;1.30;;
1507;SDS011;745;48.586;10.032;2023-10-31T12:32:23;1.53;;;1.43;;
1507;SDS011;745;48.586;10.032;2023-10-31T12:34:24;2.63;;;1.60;;
1507;SDS011;745;48.586;10.032;2023-10-31T12:36:25;2.45;;;1.85;;
1507;SDS011;745;48.586;10.032;2023-10-31T12:38:25;2.90;;;1.67;;
1507;SDS011;745;48.586;10.032;2023-10-31T12:40:26;2.27;;;1.60;;
1507;SDS011;745;48.586;10.032;2023-10-31T12:42:26;1.93;;;1.10;;